Trent Navigator — PCOV — position and weather

sailwx.info

Track history (hours):
 
Tides and Currents Weather Stations Pressure Air Temp Water Temp Dewpoint Dewpoint Depression Visibility Wind Speed Wind Dir Waves Ship Positions

Trent Navigator

Last reported at 2017-Nov-30 19:32 UTC. Time now 2017-Dec-14 17:16 UTC.
Position N 39°38' W 073°46'.
Warning: this ship's position is 13 days out of date.

Length 118 m; draft 5.1 m.

Type: Cargo ship. MMSI: 246867000.

Date/timePositionNaut miles runAvg speedWind from/ knotsBaromVisibWave heightAir tempDewpointWater temp
2017-Nov-30 19:32N 39°38' W 073°46'1 9.8
2017-Nov-30 19:28N 39°38' W 073°46'5 9.7
2017-Nov-30 19:00N 39°42' W 073°49'5 9.6
2017-Nov-30 18:29N 39°47' W 073°52'510.0
2017-Nov-30 18:00N 39°51' W 073°52'27 9.8
2017-Nov-30 15:16N 40°18' W 073°49'3 9.6
2017-Nov-30 15:00N 40°21' W 073°49'5 9.7
2017-Nov-30 14:29N 40°26' W 073°48'4 8.2
2017-Nov-30 14:00N 40°28' W 073°52'510.5
2017-Nov-30 13:30N 40°31' W 073°58'611.4
2017-Nov-30 13:00N 40°35' W 074°02'5 9.8
2017-Nov-30 12:30N 40°40' W 074°04'1 1.4
2017-Nov-30 11:59N 40°40' W 074°05'0 0.0
2017-Nov-30 11:29N 40°40' W 074°05'0 0.0
2017-Nov-30 10:59N 40°40' W 074°05'0 0.0
2017-Nov-30 10:29N 40°40' W 074°05'0 0.0
2017-Nov-30 09:56N 40°40' W 074°05'0 0.0
2017-Nov-30 09:26N 40°40' W 074°05'0 0.0
2017-Nov-30 08:59N 40°40' W 074°05'0 0.0
2017-Nov-30 08:29N 40°40' W 074°05'0 0.0
2017-Nov-30 07:56N 40°40' W 074°05'0 0.0
2017-Nov-30 07:29N 40°40' W 074°05'0 0.0
2017-Nov-30 06:59N 40°40' W 074°05'0 0.0
2017-Nov-30 06:26N 40°40' W 074°05'0 0.0
2017-Nov-30 05:59N 40°40' W 074°05'0 0.0
2017-Nov-30 05:26N 40°40' W 074°05'0 0.0
2017-Nov-30 04:59N 40°40' W 074°05'0 0.0
2017-Nov-30 04:29N 40°40' W 074°05'0 0.0
2017-Nov-30 03:59N 40°40' W 074°05'0 0.0
2017-Nov-30 03:26N 40°40' W 074°05'0 0.0
2017-Nov-30 02:59N 40°40' W 074°05'0 0.0
2017-Nov-30 02:29N 40°40' W 074°05'0 0.0
2017-Nov-30 01:56N 40°40' W 074°05'0 0.0
2017-Nov-30 01:29N 40°40' W 074°05'0 0.0
2017-Nov-30 00:59N 40°40' W 074°05'0 0.0
2017-Nov-30 00:29N 40°40' W 074°05'0 0.0
2017-Nov-29 23:59N 40°40' W 074°05'0 0.0
2017-Nov-29 23:29N 40°40' W 074°05'0 0.0
2017-Nov-29 22:56N 40°40' W 074°05'0 0.0
2017-Nov-29 22:29N 40°40' W 074°05'0 0.0
2017-Nov-29 21:59N 40°40' W 074°05'0 0.0
2017-Nov-29 21:29N 40°40' W 074°05'0 0.0
2017-Nov-29 20:56N 40°40' W 074°05'0 0.0
2017-Nov-29 20:26N 40°40' W 074°05'0 0.0
2017-Nov-29 19:53N 40°40' W 074°05'0 0.0
2017-Nov-29 19:26N 40°40' W 074°05'0 0.0
2017-Nov-29 18:59N 40°40' W 074°05'0 0.0
2017-Nov-29 18:29N 40°40' W 074°05'0 0.0
2017-Nov-29 17:56N 40°40' W 074°05'0 0.0
2017-Nov-29 17:29N 40°40' W 074°05'0 0.0
2017-Nov-29 16:53N 40°40' W 074°05'0 0.0
2017-Nov-29 16:29N 40°40' W 074°05'0 0.0
2017-Nov-29 15:56N 40°40' W 074°05'0 0.0
2017-Nov-29 15:26N 40°40' W 074°05'0 0.0
2017-Nov-29 14:59N 40°40' W 074°05'0 0.0
2017-Nov-29 14:29N 40°40' W 074°05'0 0.0
2017-Nov-29 13:56N 40°40' W 074°05'0 0.0
2017-Nov-29 13:29N 40°40' W 074°05'0 0.0
2017-Nov-29 12:59N 40°40' W 074°05'0 0.0
2017-Nov-29 12:29N 40°40' W 074°05'0 0.0
2017-Nov-29 11:56N 40°40' W 074°05'0 0.0
2017-Nov-29 11:29N 40°40' W 074°05'0 0.0
2017-Nov-29 10:59N 40°40' W 074°05'0 0.0
2017-Nov-29 10:26N 40°40' W 074°05'0 0.0
2017-Nov-29 09:56N 40°40' W 074°05'0 0.0
2017-Nov-29 09:29N 40°40' W 074°05'0 0.0
2017-Nov-29 08:59N 40°40' W 074°05'0 0.0
2017-Nov-29 08:29N 40°40' W 074°05'0 0.0
2017-Nov-29 07:59N 40°40' W 074°05'0 0.0
2017-Nov-29 07:29N 40°40' W 074°05'0 0.0
2017-Nov-29 06:59N 40°40' W 074°05'0 0.0
2017-Nov-29 06:29N 40°40' W 074°05'0 0.0
2017-Nov-29 05:59N 40°40' W 074°05'0 0.0
2017-Nov-29 05:29N 40°40' W 074°05'0 0.0
2017-Nov-29 04:56N 40°40' W 074°05'0 0.0
2017-Nov-29 04:29N 40°40' W 074°05'0 0.0
2017-Nov-29 03:59N 40°40' W 074°05'0 0.0
2017-Nov-29 03:26N 40°40' W 074°05'0 0.0
2017-Nov-29 02:59N 40°40' W 074°05'0 0.0
2017-Nov-29 02:26N 40°40' W 074°05'0 0.0
2017-Nov-29 01:59N 40°40' W 074°05'0 0.0
2017-Nov-29 01:29N 40°40' W 074°05'0 0.0
2017-Nov-29 00:50N 40°40' W 074°05'0 0.0
2017-Nov-29 00:29N 40°40' W 074°05'0 0.0
2017-Nov-28 23:59N 40°40' W 074°05'0 0.0
2017-Nov-28 23:29N 40°40' W 074°05'0 0.0
2017-Nov-28 22:59N 40°40' W 074°05'0 0.0
2017-Nov-28 22:29N 40°40' W 074°05'0 0.0
2017-Nov-28 21:59N 40°40' W 074°05'0 0.0
2017-Nov-28 21:29N 40°40' W 074°05'0 0.0
2017-Nov-28 20:59N 40°40' W 074°05'0 0.0
2017-Nov-28 20:26N 40°40' W 074°05'0 0.0
2017-Nov-28 19:59N 40°40' W 074°05'0 0.0
2017-Nov-28 19:29N 40°40' W 074°05'0 0.0
2017-Nov-28 18:56N 40°40' W 074°05'0 0.0
2017-Nov-28 18:29N 40°40' W 074°05'0 0.0
2017-Nov-28 17:59N 40°40' W 074°05'0 0.0
2017-Nov-28 17:23N 40°40' W 074°05'0 0.0
2017-Nov-28 16:59N 40°40' W 074°05'0 0.0
2017-Nov-28 16:29N 40°40' W 074°05'0 0.0
2017-Nov-28 15:59N 40°40' W 074°05'0 0.0
2017-Nov-28 14:59N 40°40' W 074°05'0 0.0
2017-Nov-28 14:29N 40°40' W 074°05'0 0.0
2017-Nov-28 13:56N 40°40' W 074°05'0 0.0
2017-Nov-28 13:26N 40°40' W 074°05'0 0.0
2017-Nov-28 12:59N 40°40' W 074°05'0 0.0
2017-Nov-28 12:26N 40°40' W 074°05'0 0.0
2017-Nov-28 11:59N 40°40' W 074°05'0 0.0
2017-Nov-28 11:29N 40°40' W 074°05'0 0.0
2017-Nov-28 10:56N 40°40' W 074°05'0 0.0
2017-Nov-28 10:26N 40°40' W 074°05'0 0.0
2017-Nov-28 09:59N 40°40' W 074°05'0 0.0
2017-Nov-28 09:26N 40°40' W 074°05'0 0.0
2017-Nov-28 08:59N 40°40' W 074°05'0 0.0
2017-Nov-28 08:26N 40°40' W 074°05'0 0.0
2017-Nov-28 07:59N 40°40' W 074°05'0 0.0
2017-Nov-28 07:26N 40°40' W 074°05'0 0.0
2017-Nov-28 06:59N 40°40' W 074°05'0 0.0
2017-Nov-28 06:26N 40°40' W 074°05'0 0.0
2017-Nov-28 05:56N 40°40' W 074°05'0 0.0
2017-Nov-28 05:29N 40°40' W 074°05'0 0.0
2017-Nov-28 04:26N 40°40' W 074°05'0 0.0
2017-Nov-28 03:53N 40°40' W 074°05'0 0.0
2017-Nov-28 03:29N 40°40' W 074°05'0 0.0
2017-Nov-28 02:59N 40°40' W 074°05'0 0.0
2017-Nov-28 02:29N 40°40' W 074°05'0 0.0
2017-Nov-28 01:56N 40°40' W 074°05'0 0.0
2017-Nov-28 01:29N 40°40' W 074°05'0 0.0
2017-Nov-28 00:53N 40°40' W 074°05'0 0.0
2017-Nov-28 00:23N 40°40' W 074°05'0 0.0
2017-Nov-27 23:56N 40°40' W 074°05'0 0.0
2017-Nov-27 23:29N 40°40' W 074°05'0 0.0
2017-Nov-27 22:53N 40°40' W 074°05'0 0.0
2017-Nov-27 22:29N 40°40' W 074°05'0 0.0
2017-Nov-27 21:59N 40°40' W 074°05'0 0.0
2017-Nov-27 21:29N 40°40' W 074°05'0 0.0
2017-Nov-27 20:59N 40°40' W 074°05'0 0.0
2017-Nov-27 20:26N 40°40' W 074°05'0 0.0
2017-Nov-27 19:56N 40°40' W 074°05'0 0.0
2017-Nov-27 19:26N 40°40' W 074°05'0 0.0
2017-Nov-27 18:59N 40°40' W 074°05'0 0.0
2017-Nov-27 18:29N 40°40' W 074°05'0 0.0
2017-Nov-27 17:59N 40°40' W 074°05'0 0.0
2017-Nov-27 17:29N 40°40' W 074°05'0 0.0
2017-Nov-27 16:59N 40°40' W 074°05'0 0.0
2017-Nov-27 16:29N 40°40' W 074°05'0 0.0
2017-Nov-27 15:56N 40°40' W 074°05'0 0.0
2017-Nov-27 15:29N 40°40' W 074°05'0 0.0
2017-Nov-27 14:56N 40°40' W 074°05'0 0.0
2017-Nov-27 14:29N 40°40' W 074°05'0 0.0
2017-Nov-27 13:59N 40°40' W 074°05'0 0.0
2017-Nov-27 13:29N 40°40' W 074°05'0 0.0
2017-Nov-27 12:59N 40°40' W 074°05'0 0.0
2017-Nov-27 12:26N 40°40' W 074°05'0 0.0
2017-Nov-27 11:59N 40°40' W 074°05'0 0.0
2017-Nov-27 11:29N 40°40' W 074°05'0 0.0
2017-Nov-27 10:59N 40°40' W 074°05'0 0.0
2017-Nov-27 10:26N 40°40' W 074°05'0 0.0
2017-Nov-27 09:59N 40°40' W 074°05'0 0.0
2017-Nov-27 09:29N 40°40' W 074°05'0 0.0
2017-Nov-27 08:56N 40°40' W 074°05'0 0.0
2017-Nov-27 08:29N 40°40' W 074°05'0 0.0
2017-Nov-27 07:59N 40°40' W 074°05'0 0.0
2017-Nov-27 07:29N 40°40' W 074°05'0 0.0
2017-Nov-27 06:59N 40°40' W 074°05'0 0.0
2017-Nov-27 06:26N 40°40' W 074°05'0 0.0
2017-Nov-27 05:59N 40°40' W 074°05'0 0.0
2017-Nov-27 05:29N 40°40' W 074°05'0 0.0
2017-Nov-27 04:59N 40°40' W 074°05'0 0.0
2017-Nov-27 04:29N 40°40' W 074°05'0 0.0
2017-Nov-27 03:59N 40°40' W 074°05'0 0.0
2017-Nov-27 03:29N 40°40' W 074°05'0 0.0
2017-Nov-27 02:59N 40°40' W 074°05'0 0.0
2017-Nov-27 02:29N 40°40' W 074°05'0 0.0
2017-Nov-27 01:53N 40°40' W 074°05'0 0.0
2017-Nov-27 01:29N 40°40' W 074°05'0 0.0
2017-Nov-27 00:59N 40°40' W 074°05'0 0.0
2017-Nov-27 00:26N 40°40' W 074°05'0 0.0
2017-Nov-26 23:56N 40°40' W 074°05'0 0.0
2017-Nov-26 23:29N 40°40' W 074°05'0 0.0
2017-Nov-26 22:59N 40°40' W 074°05'0 0.0
2017-Nov-26 22:23N 40°40' W 074°05'0 0.0
2017-Nov-26 21:59N 40°40' W 074°05'0 0.0
2017-Nov-26 21:29N 40°40' W 074°05'0 0.0
2017-Nov-26 20:59N 40°40' W 074°05'0 0.0
2017-Nov-26 20:29N 40°40' W 074°05'0 0.0
2017-Nov-26 19:59N 40°40' W 074°05'0 0.0
2017-Nov-26 19:29N 40°40' W 074°05'0 0.0
2017-Nov-26 18:59N 40°40' W 074°05'0 0.0
2017-Nov-26 18:29N 40°40' W 074°05'0 0.0
2017-Nov-26 17:59N 40°40' W 074°05'0 0.0
2017-Nov-26 17:29N 40°40' W 074°05'0 0.0
2017-Nov-26 16:59N 40°40' W 074°05'0 0.0
2017-Nov-26 16:29N 40°40' W 074°05'0 0.0
2017-Nov-26 15:59N 40°40' W 074°05'0 0.0
2017-Nov-26 15:29N 40°40' W 074°05'0 0.0
2017-Nov-26 14:59N 40°40' W 074°05'0 0.0
2017-Nov-26 14:29N 40°40' W 074°05'0 0.0
2017-Nov-26 13:59N 40°40' W 074°05'0 0.0
2017-Nov-26 13:29N 40°40' W 074°05'0 0.0
2017-Nov-26 12:56N 40°40' W 074°05'0 0.0
2017-Nov-26 12:23N 40°40' W 074°05'0 0.0
2017-Nov-26 12:00N 40°40' W 074°05'0 0.6
2017-Nov-26 11:30N 40°40' W 074°05'3 5.0
2017-Nov-26 11:00N 40°38' W 074°03'510.1
2017-Nov-26 10:30N 40°33' W 074°02'510.1
2017-Nov-26 10:00N 40°30' W 073°56'5 9.5
2017-Nov-26 09:29N 40°28' W 073°51'3 5.9
2017-Nov-26 09:00N 40°26' W 073°47'4 8.1
2017-Nov-26 08:30N 40°22' W 073°47'5 8.7
2017-Nov-26 07:58N 40°18' W 073°46'100 6.7
2017-Nov-25 17:06N 38°45' W 074°35'1 8.5
2017-Nov-25 16:57N 38°45' W 074°37'5 9.6
2017-Nov-25 16:27N 38°45' W 074°43'4 8.4
2017-Nov-25 16:00N 38°46' W 074°48'4 8.3
2017-Nov-25 15:30N 38°46' W 074°53'4 8.4
2017-Nov-25 15:00N 38°46' W 074°59'4 7.6
2017-Nov-25 14:30N 38°48' W 075°03'4 8.4
2017-Nov-25 14:00N 38°51' W 075°05'510.9
2017-Nov-25 13:30N 38°57' W 075°07'611.2
2017-Nov-25 13:01N 39°02' W 075°09'611.7
2017-Nov-25 12:31N 39°07' W 075°13'611.4
2017-Nov-25 12:00N 39°12' W 075°17'612.8
2017-Nov-25 11:31N 39°17' W 075°22'712.9
2017-Nov-25 11:00N 39°22' W 075°27'612.7
2017-Nov-25 10:30N 39°27' W 075°33'611.4
2017-Nov-25 10:00N 39°32' W 075°33'4 7.6
2017-Nov-25 09:30N 39°33' W 075°38'5 9.8
2017-Nov-25 09:00N 39°32' W 075°44'4 9.0
2017-Nov-25 08:30N 39°32' W 075°50'5 9.7
2017-Nov-25 08:00N 39°30' W 075°55'611.6
2017-Nov-25 07:30N 39°26' W 076°01'611.3
2017-Nov-25 07:00N 39°23' W 076°07'611.6
2017-Nov-25 06:30N 39°19' W 076°13'611.5
2017-Nov-25 06:00N 39°14' W 076°15'611.8
2017-Nov-25 05:30N 39°09' W 076°19'611.2
2017-Nov-25 05:00N 39°11' W 076°26'611.3
2017-Nov-25 04:30N 39°14' W 076°32'3 5.7
2017-Nov-25 04:00N 39°16' W 076°34'0 0.0
2017-Nov-25 03:30N 39°16' W 076°34'0 0.0
2017-Nov-25 03:00N 39°16' W 076°34'0 0.0
2017-Nov-25 02:30N 39°16' W 076°34'0 0.0
2017-Nov-25 02:00N 39°16' W 076°34'0 0.0
2017-Nov-25 01:30N 39°16' W 076°34'0 0.0
2017-Nov-25 01:00N 39°16' W 076°34'0 0.0
2017-Nov-25 00:30N 39°16' W 076°34'0 0.0
2017-Nov-25 00:00N 39°16' W 076°34'0 0.0
2017-Nov-24 23:30N 39°16' W 076°34'0 0.0
2017-Nov-24 23:00N 39°16' W 076°34'0 0.0
2017-Nov-24 22:30N 39°16' W 076°34'0 0.0
2017-Nov-24 22:00N 39°16' W 076°34'0 0.0
2017-Nov-24 21:30N 39°16' W 076°34'0 0.0
2017-Nov-24 21:00N 39°16' W 076°34'0 0.0
2017-Nov-24 20:30N 39°16' W 076°34'0 0.0
2017-Nov-24 20:00N 39°16' W 076°34'0 0.0
2017-Nov-24 19:30N 39°16' W 076°34'0 0.0
2017-Nov-24 19:00N 39°16' W 076°34'0 0.0
2017-Nov-24 18:30N 39°16' W 076°34'0 0.0
2017-Nov-24 18:00N 39°16' W 076°34'0 0.0
2017-Nov-24 17:30N 39°16' W 076°34'0 0.0
2017-Nov-24 17:00N 39°16' W 076°34'0 0.0
2017-Nov-24 16:30N 39°16' W 076°34'0 0.0
2017-Nov-24 16:00N 39°16' W 076°34'0 0.0
2017-Nov-24 15:30N 39°16' W 076°34'0 0.0
2017-Nov-24 15:00N 39°16' W 076°34'0 0.0
2017-Nov-24 14:30N 39°16' W 076°34'0 0.0
2017-Nov-24 14:00N 39°16' W 076°34'0 0.0
2017-Nov-24 13:30N 39°16' W 076°34'0 0.0
2017-Nov-24 13:00N 39°16' W 076°34'0 0.0
2017-Nov-24 12:30N 39°16' W 076°34'0 0.0
2017-Nov-24 12:00N 39°16' W 076°34'0 0.0
2017-Nov-24 11:30N 39°16' W 076°34'0 0.0
2017-Nov-24 11:00N 39°16' W 076°34'0 0.0
2017-Nov-24 10:30N 39°16' W 076°34'0 0.0
2017-Nov-24 10:00N 39°16' W 076°34'0 0.0
2017-Nov-24 09:30N 39°16' W 076°34'0 0.0
2017-Nov-24 09:00N 39°16' W 076°34'0 0.0
2017-Nov-24 08:30N 39°16' W 076°34'0 0.0
2017-Nov-24 08:00N 39°16' W 076°34'0 0.2
2017-Nov-24 07:31N 39°16' W 076°34'2 4.0
2017-Nov-24 07:00N 39°14' W 076°33'4 8.2
2017-Nov-24 06:30N 39°12' W 076°29'510.5
2017-Nov-24 06:00N 39°08' W 076°24'510.9
2017-Nov-24 05:30N 39°03' W 076°23'510.6
2017-Nov-24 05:01N 38°57' W 076°23'611.1
2017-Nov-24 04:27N 38°51' W 076°24'3411.0
2017-Nov-24 01:23N 38°18' W 076°18'6811.6
2017-Nov-23 19:30N 37°10' W 076°09'612.1
2017-Nov-23 19:01N 37°05' W 076°06'612.1
2017-Nov-23 18:30N 36°60' W 076°01'4 8.4
2017-Nov-23 18:00N 36°57' W 075°58'4 7.4
2017-Nov-23 17:30N 36°55' W 075°54'4 8.9
2017-Nov-23 17:01N 36°52' W 075°50'  
Track history (hours):
 
Tides and Currents Weather Stations Pressure Air Temp Water Temp Dewpoint Dewpoint Depression Visibility Wind Speed Wind Dir Waves Ship Positions

Trent Navigator

Last reported at 2017-Nov-30 19:32 UTC. Time now 2017-Dec-14 17:16 UTC.
Position N 39°38' W 073°46'.
Warning: this ship's position is 13 days out of date.

Length 118 m; draft 5.1 m.

Type: Cargo ship. MMSI: 246867000.

Date/timePositionNaut miles runAvg speedWind from/ knotsBaromVisibWave heightAir tempDewpointWater temp
2017-Nov-30 19:32N 39°38' W 073°46'1 9.8
2017-Nov-30 19:28N 39°38' W 073°46'5 9.7
2017-Nov-30 19:00N 39°42' W 073°49'5 9.6
2017-Nov-30 18:29N 39°47' W 073°52'510.0
2017-Nov-30 18:00N 39°51' W 073°52'27 9.8
2017-Nov-30 15:16N 40°18' W 073°49'3 9.6
2017-Nov-30 15:00N 40°21' W 073°49'5 9.7
2017-Nov-30 14:29N 40°26' W 073°48'4 8.2
2017-Nov-30 14:00N 40°28' W 073°52'510.5
2017-Nov-30 13:30N 40°31' W 073°58'611.4
2017-Nov-30 13:00N 40°35' W 074°02'5 9.8
2017-Nov-30 12:30N 40°40' W 074°04'1 1.4
2017-Nov-30 11:59N 40°40' W 074°05'0 0.0
2017-Nov-30 11:29N 40°40' W 074°05'0 0.0
2017-Nov-30 10:59N 40°40' W 074°05'0 0.0
2017-Nov-30 10:29N 40°40' W 074°05'0 0.0
2017-Nov-30 09:56N 40°40' W 074°05'0 0.0
2017-Nov-30 09:26N 40°40' W 074°05'0 0.0
2017-Nov-30 08:59N 40°40' W 074°05'0 0.0
2017-Nov-30 08:29N 40°40' W 074°05'0 0.0
2017-Nov-30 07:56N 40°40' W 074°05'0 0.0
2017-Nov-30 07:29N 40°40' W 074°05'0 0.0
2017-Nov-30 06:59N 40°40' W 074°05'0 0.0
2017-Nov-30 06:26N 40°40' W 074°05'0 0.0
2017-Nov-30 05:59N 40°40' W 074°05'0 0.0
2017-Nov-30 05:26N 40°40' W 074°05'0 0.0
2017-Nov-30 04:59N 40°40' W 074°05'0 0.0
2017-Nov-30 04:29N 40°40' W 074°05'0 0.0
2017-Nov-30 03:59N 40°40' W 074°05'0 0.0
2017-Nov-30 03:26N 40°40' W 074°05'0 0.0
2017-Nov-30 02:59N 40°40' W 074°05'0 0.0
2017-Nov-30 02:29N 40°40' W 074°05'0 0.0
2017-Nov-30 01:56N 40°40' W 074°05'0 0.0
2017-Nov-30 01:29N 40°40' W 074°05'0 0.0
2017-Nov-30 00:59N 40°40' W 074°05'0 0.0
2017-Nov-30 00:29N 40°40' W 074°05'0 0.0
2017-Nov-29 23:59N 40°40' W 074°05'0 0.0
2017-Nov-29 23:29N 40°40' W 074°05'0 0.0
2017-Nov-29 22:56N 40°40' W 074°05'0 0.0
2017-Nov-29 22:29N 40°40' W 074°05'0 0.0
2017-Nov-29 21:59N 40°40' W 074°05'0 0.0
2017-Nov-29 21:29N 40°40' W 074°05'0 0.0
2017-Nov-29 20:56N 40°40' W 074°05'0 0.0
2017-Nov-29 20:26N 40°40' W 074°05'0 0.0
2017-Nov-29 19:53N 40°40' W 074°05'0 0.0
2017-Nov-29 19:26N 40°40' W 074°05'0 0.0
2017-Nov-29 18:59N 40°40' W 074°05'0 0.0
2017-Nov-29 18:29N 40°40' W 074°05'0 0.0
2017-Nov-29 17:56N 40°40' W 074°05'0 0.0
2017-Nov-29 17:29N 40°40' W 074°05'0 0.0
2017-Nov-29 16:53N 40°40' W 074°05'0 0.0
2017-Nov-29 16:29N 40°40' W 074°05'0 0.0
2017-Nov-29 15:56N 40°40' W 074°05'0 0.0
2017-Nov-29 15:26N 40°40' W 074°05'0 0.0
2017-Nov-29 14:59N 40°40' W 074°05'0 0.0
2017-Nov-29 14:29N 40°40' W 074°05'0 0.0
2017-Nov-29 13:56N 40°40' W 074°05'0 0.0
2017-Nov-29 13:29N 40°40' W 074°05'0 0.0
2017-Nov-29 12:59N 40°40' W 074°05'0 0.0
2017-Nov-29 12:29N 40°40' W 074°05'0 0.0
2017-Nov-29 11:56N 40°40' W 074°05'0 0.0
2017-Nov-29 11:29N 40°40' W 074°05'0 0.0
2017-Nov-29 10:59N 40°40' W 074°05'0 0.0
2017-Nov-29 10:26N 40°40' W 074°05'0 0.0
2017-Nov-29 09:56N 40°40' W 074°05'0 0.0
2017-Nov-29 09:29N 40°40' W 074°05'0 0.0
2017-Nov-29 08:59N 40°40' W 074°05'0 0.0
2017-Nov-29 08:29N 40°40' W 074°05'0 0.0
2017-Nov-29 07:59N 40°40' W 074°05'0 0.0
2017-Nov-29 07:29N 40°40' W 074°05'0 0.0
2017-Nov-29 06:59N 40°40' W 074°05'0 0.0
2017-Nov-29 06:29N 40°40' W 074°05'0 0.0
2017-Nov-29 05:59N 40°40' W 074°05'0 0.0
2017-Nov-29 05:29N 40°40' W 074°05'0 0.0
2017-Nov-29 04:56N 40°40' W 074°05'0 0.0
2017-Nov-29 04:29N 40°40' W 074°05'0 0.0
2017-Nov-29 03:59N 40°40' W 074°05'0 0.0
2017-Nov-29 03:26N 40°40' W 074°05'0 0.0
2017-Nov-29 02:59N 40°40' W 074°05'0 0.0
2017-Nov-29 02:26N 40°40' W 074°05'0 0.0
2017-Nov-29 01:59N 40°40' W 074°05'0 0.0
2017-Nov-29 01:29N 40°40' W 074°05'0 0.0
2017-Nov-29 00:50N 40°40' W 074°05'0 0.0
2017-Nov-29 00:29N 40°40' W 074°05'0 0.0
2017-Nov-28 23:59N 40°40' W 074°05'0 0.0
2017-Nov-28 23:29N 40°40' W 074°05'0 0.0
2017-Nov-28 22:59N 40°40' W 074°05'0 0.0
2017-Nov-28 22:29N 40°40' W 074°05'0 0.0
2017-Nov-28 21:59N 40°40' W 074°05'0 0.0
2017-Nov-28 21:29N 40°40' W 074°05'0 0.0
2017-Nov-28 20:59N 40°40' W 074°05'0 0.0
2017-Nov-28 20:26N 40°40' W 074°05'0 0.0
2017-Nov-28 19:59N 40°40' W 074°05'0 0.0
2017-Nov-28 19:29N 40°40' W 074°05'0 0.0
2017-Nov-28 18:56N 40°40' W 074°05'0 0.0
2017-Nov-28 18:29N 40°40' W 074°05'0 0.0
2017-Nov-28 17:59N 40°40' W 074°05'0 0.0
2017-Nov-28 17:23N 40°40' W 074°05'0 0.0
2017-Nov-28 16:59N 40°40' W 074°05'0 0.0
2017-Nov-28 16:29N 40°40' W 074°05'0 0.0
2017-Nov-28 15:59N 40°40' W 074°05'0 0.0
2017-Nov-28 14:59N 40°40' W 074°05'0 0.0
2017-Nov-28 14:29N 40°40' W 074°05'0 0.0
2017-Nov-28 13:56N 40°40' W 074°05'0 0.0
2017-Nov-28 13:26N 40°40' W 074°05'0 0.0
2017-Nov-28 12:59N 40°40' W 074°05'0 0.0
2017-Nov-28 12:26N 40°40' W 074°05'0 0.0
2017-Nov-28 11:59N 40°40' W 074°05'0 0.0
2017-Nov-28 11:29N 40°40' W 074°05'0 0.0
2017-Nov-28 10:56N 40°40' W 074°05'0 0.0
2017-Nov-28 10:26N 40°40' W 074°05'0 0.0
2017-Nov-28 09:59N 40°40' W 074°05'0 0.0
2017-Nov-28 09:26N 40°40' W 074°05'0 0.0
2017-Nov-28 08:59N 40°40' W 074°05'0 0.0
2017-Nov-28 08:26N 40°40' W 074°05'0 0.0
2017-Nov-28 07:59N 40°40' W 074°05'0 0.0
2017-Nov-28 07:26N 40°40' W 074°05'0 0.0
2017-Nov-28 06:59N 40°40' W 074°05'0 0.0
2017-Nov-28 06:26N 40°40' W 074°05'0 0.0
2017-Nov-28 05:56N 40°40' W 074°05'0 0.0
2017-Nov-28 05:29N 40°40' W 074°05'0 0.0
2017-Nov-28 04:26N 40°40' W 074°05'0 0.0
2017-Nov-28 03:53N 40°40' W 074°05'0 0.0
2017-Nov-28 03:29N 40°40' W 074°05'0 0.0
2017-Nov-28 02:59N 40°40' W 074°05'0 0.0
2017-Nov-28 02:29N 40°40' W 074°05'0 0.0
2017-Nov-28 01:56N 40°40' W 074°05'0 0.0
2017-Nov-28 01:29N 40°40' W 074°05'0 0.0
2017-Nov-28 00:53N 40°40' W 074°05'0 0.0
2017-Nov-28 00:23N 40°40' W 074°05'0 0.0
2017-Nov-27 23:56N 40°40' W 074°05'0 0.0
2017-Nov-27 23:29N 40°40' W 074°05'0 0.0
2017-Nov-27 22:53N 40°40' W 074°05'0 0.0
2017-Nov-27 22:29N 40°40' W 074°05'0 0.0
2017-Nov-27 21:59N 40°40' W 074°05'0 0.0
2017-Nov-27 21:29N 40°40' W 074°05'0 0.0
2017-Nov-27 20:59N 40°40' W 074°05'0 0.0
2017-Nov-27 20:26N 40°40' W 074°05'0 0.0
2017-Nov-27 19:56N 40°40' W 074°05'0 0.0
2017-Nov-27 19:26N 40°40' W 074°05'0 0.0
2017-Nov-27 18:59N 40°40' W 074°05'0 0.0
2017-Nov-27 18:29N 40°40' W 074°05'0 0.0
2017-Nov-27 17:59N 40°40' W 074°05'0 0.0
2017-Nov-27 17:29N 40°40' W 074°05'0 0.0
2017-Nov-27 16:59N 40°40' W 074°05'0 0.0
2017-Nov-27 16:29N 40°40' W 074°05'0 0.0
2017-Nov-27 15:56N 40°40' W 074°05'0 0.0
2017-Nov-27 15:29N 40°40' W 074°05'0 0.0
2017-Nov-27 14:56N 40°40' W 074°05'0 0.0
2017-Nov-27 14:29N 40°40' W 074°05'0 0.0
2017-Nov-27 13:59N 40°40' W 074°05'0 0.0
2017-Nov-27 13:29N 40°40' W 074°05'0 0.0
2017-Nov-27 12:59N 40°40' W 074°05'0 0.0
2017-Nov-27 12:26N 40°40' W 074°05'0 0.0
2017-Nov-27 11:59N 40°40' W 074°05'0 0.0
2017-Nov-27 11:29N 40°40' W 074°05'0 0.0
2017-Nov-27 10:59N 40°40' W 074°05'0 0.0
2017-Nov-27 10:26N 40°40' W 074°05'0 0.0
2017-Nov-27 09:59N 40°40' W 074°05'0 0.0
2017-Nov-27 09:29N 40°40' W 074°05'0 0.0
2017-Nov-27 08:56N 40°40' W 074°05'0 0.0
2017-Nov-27 08:29N 40°40' W 074°05'0 0.0
2017-Nov-27 07:59N 40°40' W 074°05'0 0.0
2017-Nov-27 07:29N 40°40' W 074°05'0 0.0
2017-Nov-27 06:59N 40°40' W 074°05'0 0.0
2017-Nov-27 06:26N 40°40' W 074°05'0 0.0
2017-Nov-27 05:59N 40°40' W 074°05'0 0.0
2017-Nov-27 05:29N 40°40' W 074°05'0 0.0
2017-Nov-27 04:59N 40°40' W 074°05'0 0.0
2017-Nov-27 04:29N 40°40' W 074°05'0 0.0
2017-Nov-27 03:59N 40°40' W 074°05'0 0.0
2017-Nov-27 03:29N 40°40' W 074°05'0 0.0
2017-Nov-27 02:59N 40°40' W 074°05'0 0.0
2017-Nov-27 02:29N 40°40' W 074°05'0 0.0
2017-Nov-27 01:53N 40°40' W 074°05'0 0.0
2017-Nov-27 01:29N 40°40' W 074°05'0 0.0
2017-Nov-27 00:59N 40°40' W 074°05'0 0.0
2017-Nov-27 00:26N 40°40' W 074°05'0 0.0
2017-Nov-26 23:56N 40°40' W 074°05'0 0.0
2017-Nov-26 23:29N 40°40' W 074°05'0 0.0
2017-Nov-26 22:59N 40°40' W 074°05'0 0.0
2017-Nov-26 22:23N 40°40' W 074°05'0 0.0
2017-Nov-26 21:59N 40°40' W 074°05'0 0.0
2017-Nov-26 21:29N 40°40' W 074°05'0 0.0
2017-Nov-26 20:59N 40°40' W 074°05'0 0.0
2017-Nov-26 20:29N 40°40' W 074°05'0 0.0
2017-Nov-26 19:59N 40°40' W 074°05'0 0.0
2017-Nov-26 19:29N 40°40' W 074°05'0 0.0
2017-Nov-26 18:59N 40°40' W 074°05'0 0.0
2017-Nov-26 18:29N 40°40' W 074°05'0 0.0
2017-Nov-26 17:59N 40°40' W 074°05'0 0.0
2017-Nov-26 17:29N 40°40' W 074°05'0 0.0
2017-Nov-26 16:59N 40°40' W 074°05'0 0.0
2017-Nov-26 16:29N 40°40' W 074°05'0 0.0
2017-Nov-26 15:59N 40°40' W 074°05'0 0.0
2017-Nov-26 15:29N 40°40' W 074°05'0 0.0
2017-Nov-26 14:59N 40°40' W 074°05'0 0.0
2017-Nov-26 14:29N 40°40' W 074°05'0 0.0
2017-Nov-26 13:59N 40°40' W 074°05'0 0.0
2017-Nov-26 13:29N 40°40' W 074°05'0 0.0
2017-Nov-26 12:56N 40°40' W 074°05'0 0.0
2017-Nov-26 12:23N 40°40' W 074°05'0 0.0
2017-Nov-26 12:00N 40°40' W 074°05'0 0.6
2017-Nov-26 11:30N 40°40' W 074°05'3 5.0
2017-Nov-26 11:00N 40°38' W 074°03'510.1
2017-Nov-26 10:30N 40°33' W 074°02'510.1
2017-Nov-26 10:00N 40°30' W 073°56'5 9.5
2017-Nov-26 09:29N 40°28' W 073°51'3 5.9
2017-Nov-26 09:00N 40°26' W 073°47'4 8.1
2017-Nov-26 08:30N 40°22' W 073°47'5 8.7
2017-Nov-26 07:58N 40°18' W 073°46'100 6.7
2017-Nov-25 17:06N 38°45' W 074°35'1 8.5
2017-Nov-25 16:57N 38°45' W 074°37'5 9.6
2017-Nov-25 16:27N 38°45' W 074°43'4 8.4
2017-Nov-25 16:00N 38°46' W 074°48'4 8.3
2017-Nov-25 15:30N 38°46' W 074°53'4 8.4
2017-Nov-25 15:00N 38°46' W 074°59'4 7.6
2017-Nov-25 14:30N 38°48' W 075°03'4 8.4
2017-Nov-25 14:00N 38°51' W 075°05'510.9
2017-Nov-25 13:30N 38°57' W 075°07'611.2
2017-Nov-25 13:01N 39°02' W 075°09'611.7
2017-Nov-25 12:31N 39°07' W 075°13'611.4
2017-Nov-25 12:00N 39°12' W 075°17'612.8
2017-Nov-25 11:31N 39°17' W 075°22'712.9
2017-Nov-25 11:00N 39°22' W 075°27'612.7
2017-Nov-25 10:30N 39°27' W 075°33'611.4
2017-Nov-25 10:00N 39°32' W 075°33'4 7.6
2017-Nov-25 09:30N 39°33' W 075°38'5 9.8
2017-Nov-25 09:00N 39°32' W 075°44'4 9.0
2017-Nov-25 08:30N 39°32' W 075°50'5 9.7
2017-Nov-25 08:00N 39°30' W 075°55'611.6
2017-Nov-25 07:30N 39°26' W 076°01'611.3
2017-Nov-25 07:00N 39°23' W 076°07'611.6
2017-Nov-25 06:30N 39°19' W 076°13'611.5
2017-Nov-25 06:00N 39°14' W 076°15'611.8
2017-Nov-25 05:30N 39°09' W 076°19'611.2
2017-Nov-25 05:00N 39°11' W 076°26'611.3
2017-Nov-25 04:30N 39°14' W 076°32'3 5.7
2017-Nov-25 04:00N 39°16' W 076°34'0 0.0
2017-Nov-25 03:30N 39°16' W 076°34'0 0.0
2017-Nov-25 03:00N 39°16' W 076°34'0 0.0
2017-Nov-25 02:30N 39°16' W 076°34'0 0.0
2017-Nov-25 02:00N 39°16' W 076°34'0 0.0
2017-Nov-25 01:30N 39°16' W 076°34'0 0.0
2017-Nov-25 01:00N 39°16' W 076°34'0 0.0
2017-Nov-25 00:30N 39°16' W 076°34'0 0.0
2017-Nov-25 00:00N 39°16' W 076°34'0 0.0
2017-Nov-24 23:30N 39°16' W 076°34'0 0.0
2017-Nov-24 23:00N 39°16' W 076°34'0 0.0
2017-Nov-24 22:30N 39°16' W 076°34'0 0.0
2017-Nov-24 22:00N 39°16' W 076°34'0 0.0
2017-Nov-24 21:30N 39°16' W 076°34'0 0.0
2017-Nov-24 21:00N 39°16' W 076°34'0 0.0
2017-Nov-24 20:30N 39°16' W 076°34'0 0.0
2017-Nov-24 20:00N 39°16' W 076°34'0 0.0
2017-Nov-24 19:30N 39°16' W 076°34'0 0.0
2017-Nov-24 19:00N 39°16' W 076°34'0 0.0
2017-Nov-24 18:30N 39°16' W 076°34'0 0.0
2017-Nov-24 18:00N 39°16' W 076°34'0 0.0
2017-Nov-24 17:30N 39°16' W 076°34'0 0.0
2017-Nov-24 17:00N 39°16' W 076°34'0 0.0
2017-Nov-24 16:30N 39°16' W 076°34'0 0.0
2017-Nov-24 16:00N 39°16' W 076°34'0 0.0
2017-Nov-24 15:30N 39°16' W 076°34'0 0.0
2017-Nov-24 15:00N 39°16' W 076°34'0 0.0
2017-Nov-24 14:30N 39°16' W 076°34'0 0.0
2017-Nov-24 14:00N 39°16' W 076°34'0 0.0
2017-Nov-24 13:30N 39°16' W 076°34'0 0.0
2017-Nov-24 13:00N 39°16' W 076°34'0 0.0
2017-Nov-24 12:30N 39°16' W 076°34'0 0.0
2017-Nov-24 12:00N 39°16' W 076°34'0 0.0
2017-Nov-24 11:30N 39°16' W 076°34'0 0.0
2017-Nov-24 11:00N 39°16' W 076°34'0 0.0
2017-Nov-24 10:30N 39°16' W 076°34'0 0.0
2017-Nov-24 10:00N 39°16' W 076°34'0 0.0
2017-Nov-24 09:30N 39°16' W 076°34'0 0.0
2017-Nov-24 09:00N 39°16' W 076°34'0 0.0
2017-Nov-24 08:30N 39°16' W 076°34'0 0.0
2017-Nov-24 08:00N 39°16' W 076°34'0 0.2
2017-Nov-24 07:31N 39°16' W 076°34'2 4.0
2017-Nov-24 07:00N 39°14' W 076°33'4 8.2
2017-Nov-24 06:30N 39°12' W 076°29'510.5
2017-Nov-24 06:00N 39°08' W 076°24'510.9
2017-Nov-24 05:30N 39°03' W 076°23'510.6
2017-Nov-24 05:01N 38°57' W 076°23'611.1
2017-Nov-24 04:27N 38°51' W 076°24'3411.0
2017-Nov-24 01:23N 38°18' W 076°18'6811.6
2017-Nov-23 19:30N 37°10' W 076°09'612.1
2017-Nov-23 19:01N 37°05' W 076°06'612.1
2017-Nov-23 18:30N 36°60' W 076°01'4 8.4
2017-Nov-23 18:00N 36°57' W 075°58'4 7.4
2017-Nov-23 17:30N 36°55' W 075°54'4 8.9
2017-Nov-23 17:01N 36°52' W 075°50'  

Dump ship's entire track history